createdAt,value
2022-10-31T00:02:46.599Z,72.40
2022-10-31T00:07:09.522Z,72.50
2022-10-31T00:11:25.111Z,72.60
2022-10-31T00:15:42.793Z,72.50
2022-10-31T00:19:57.757Z,72.30
2022-10-31T00:24:22.044Z,72.60
2022-10-31T00:28:37.146Z,72.70
2022-10-31T00:32:51.057Z,73.00
2022-10-31T00:37:05.123Z,73.20
2022-10-31T00:41:19.865Z,73.20
2022-10-31T00:45:35.029Z,73.30
2022-10-31T00:49:48.676Z,73.50
2022-10-31T00:54:02.366Z,73.80
2022-10-31T00:58:16.264Z,74.10
2022-10-31T01:02:31.506Z,74.50
2022-10-31T01:06:45.291Z,74.90
2022-10-31T01:11:05.017Z,74.90
2022-10-31T01:15:23.215Z,75.30
2022-10-31T01:19:38.298Z,75.40
2022-10-31T01:23:52.098Z,75.40
2022-10-31T01:28:06.037Z,75.40
2022-10-31T01:32:20.881Z,75.80
2022-10-31T01:36:37.872Z,76.20
2022-10-31T01:40:52.712Z,76.40
2022-10-31T01:45:07.968Z,76.50
2022-10-31T01:49:26.308Z,76.60
2022-10-31T01:53:43.196Z,76.50
2022-10-31T01:58:01.244Z,76.60
2022-10-31T02:02:17.309Z,76.90
2022-10-31T02:06:40.769Z,77.30
2022-10-31T02:10:58.112Z,77.60
2022-10-31T02:15:12.495Z,78.00
2022-10-31T02:19:36.930Z,78.20
2022-10-31T02:24:18.764Z,78.40
2022-10-31T02:29:12.188Z,78.60
2022-10-31T02:33:31.523Z,78.80
2022-10-31T02:37:52.277Z,79.80
2022-10-31T02:42:10.195Z,79.30
2022-10-31T02:46:33.038Z,79.50
2022-10-31T02:50:55.589Z,79.80
2022-10-31T02:55:14.563Z,79.90
2022-10-31T02:59:31.731Z,80.10
2022-10-31T03:03:58.761Z,80.30
2022-10-31T03:08:23.793Z,80.50
2022-10-31T03:12:44.599Z,80.60
2022-10-31T03:17:06.517Z,81.30
2022-10-31T03:21:25.611Z,80.80
2022-10-31T03:25:42.618Z,80.80
2022-10-31T03:30:00.486Z,80.60
2022-10-31T03:34:17.693Z,80.50
2022-10-31T03:38:34.525Z,80.90
2022-10-31T03:42:56.706Z,81.30
2022-10-31T03:47:11.038Z,81.50
2022-10-31T03:51:27.793Z,82.00
2022-10-31T03:55:44.889Z,82.20
2022-10-31T04:00:03.817Z,82.50
2022-10-31T04:04:21.942Z,82.50
2022-10-31T04:08:42.458Z,82.40
2022-10-31T04:13:05.385Z,83.00
2022-10-31T04:17:32.511Z,82.20
2022-10-31T04:21:47.161Z,82.20
2022-10-31T04:26:00.962Z,82.50
2022-10-31T04:30:15.160Z,82.80
2022-10-31T04:34:30.829Z,82.90
2022-10-31T04:38:44.612Z,83.10
2022-10-31T04:43:11.918Z,83.20
2022-10-31T04:47:26.557Z,83.30
2022-10-31T04:51:42.134Z,83.50
2022-10-31T04:55:56.943Z,83.90
2022-10-31T05:00:14.351Z,84.50
2022-10-31T05:04:28.251Z,84.90
2022-10-31T05:08:43.819Z,85.00
2022-10-31T05:13:01.795Z,85.30
2022-10-31T05:17:34.683Z,85.60
2022-10-31T05:22:14.453Z,85.80
2022-10-31T05:26:29.753Z,86.00
2022-10-31T05:30:43.650Z,86.10
2022-10-31T05:35:00.886Z,86.30
2022-10-31T05:39:46.320Z,86.60
2022-10-31T05:44:04.315Z,86.70
2022-10-31T05:48:21.989Z,87.00
2022-10-31T05:53:00.283Z,87.20
2022-10-31T05:57:21.531Z,87.60
2022-10-31T06:01:36.761Z,87.70
2022-10-31T06:05:55.192Z,87.70
2022-10-31T06:10:12.587Z,87.70
2022-10-31T06:14:26.352Z,87.90
2022-10-31T06:18:43.665Z,88.50
2022-10-31T06:22:59.310Z,88.80
2022-10-31T06:27:13.364Z,88.90
2022-10-31T06:31:27.200Z,88.80
2022-10-31T06:35:47.792Z,88.60
2022-10-31T06:40:03.406Z,88.70
2022-10-31T06:44:23.861Z,88.70
2022-10-31T06:48:57.760Z,88.70
2022-10-31T06:53:25.030Z,88.70
2022-10-31T06:57:39.027Z,88.50
2022-10-31T07:01:52.944Z,88.00
2022-10-31T07:06:07.615Z,87.40
2022-10-31T07:10:23.440Z,86.90
2022-10-31T07:14:43.239Z,86.80
2022-10-31T07:18:58.026Z,86.60
2022-10-31T07:23:12.621Z,86.60
2022-10-31T07:27:29.111Z,86.50
2022-10-31T07:31:47.581Z,87.00
2022-10-31T07:36:09.032Z,89.80
2022-10-31T07:40:24.198Z,89.10
2022-10-31T07:44:41.263Z,84.70
2022-10-31T07:49:33.342Z,80.40
2022-10-31T07:54:05.464Z,76.30
2022-10-31T07:58:20.187Z,71.60
2022-10-31T08:02:35.386Z,67.70
2022-10-31T08:07:09.072Z,67.00
2022-10-31T08:11:25.312Z,67.10
2022-10-31T08:15:42.322Z,64.80
2022-10-31T08:19:57.661Z,62.40
2022-10-31T08:24:16.617Z,60.60
2022-10-31T08:28:30.503Z,58.80
2022-10-31T08:32:44.776Z,56.50
2022-10-31T08:37:25.599Z,55.00
2022-10-31T08:41:41.842Z,53.10
2022-10-31T08:45:59.277Z,52.20
2022-10-31T08:50:16.113Z,51.90
2022-10-31T08:54:35.083Z,51.20
2022-10-31T08:59:07.357Z,50.50
2022-10-31T09:03:53.062Z,50.10
2022-10-31T09:08:14.834Z,50.20
2022-10-31T09:12:32.788Z,48.90
2022-10-31T09:17:05.219Z,48.90
2022-10-31T09:21:38.018Z,49.80
2022-10-31T09:25:54.784Z,50.30
2022-10-31T09:30:38.535Z,50.70
2022-10-31T09:34:52.827Z,51.30
2022-10-31T09:39:08.388Z,51.60
2022-10-31T09:43:35.348Z,51.90
2022-10-31T09:48:04.188Z,51.50
2022-10-31T09:52:23.152Z,51.30
2022-10-31T09:56:37.765Z,50.60
2022-10-31T10:00:51.707Z,50.60
2022-10-31T10:05:11.947Z,51.00
2022-10-31T10:09:29.678Z,51.80
2022-10-31T10:14:32.751Z,52.30
2022-10-31T10:19:02.171Z,52.40
2022-10-31T10:23:41.996Z,52.20
2022-10-31T10:28:10.570Z,51.80
2022-10-31T10:32:27.336Z,52.20
2022-10-31T10:36:44.924Z,52.20
2022-10-31T10:41:02.957Z,51.70
2022-10-31T10:45:36.740Z,51.80
2022-10-31T10:49:53.531Z,52.30
2022-10-31T10:54:18.153Z,52.60
2022-10-31T10:58:34.042Z,53.00
2022-10-31T11:02:49.169Z,52.90
2022-10-31T11:07:05.874Z,52.60
2022-10-31T11:11:28.915Z,53.10
2022-10-31T11:16:04.320Z,52.60
2022-10-31T11:20:32.754Z,52.80
2022-10-31T11:24:47.912Z,52.50
2022-10-31T11:29:04.106Z,52.80
2022-10-31T11:33:28.729Z,53.00
2022-10-31T11:37:45.915Z,53.30
2022-10-31T11:42:08.520Z,53.60
2022-10-31T11:46:26.410Z,54.00
2022-10-31T11:50:43.449Z,54.50
2022-10-31T11:55:00.202Z,54.60
2022-10-31T11:59:25.456Z,54.90
2022-10-31T12:03:53.528Z,55.50
2022-10-31T12:08:09.667Z,56.30
2022-10-31T12:12:56.095Z,57.10
2022-10-31T12:17:16.762Z,57.90
2022-10-31T12:21:43.966Z,58.50
2022-10-31T12:26:09.670Z,59.40
2022-10-31T12:30:28.556Z,60.00
2022-10-31T12:35:00.324Z,60.70
2022-10-31T12:39:38.376Z,62.40
2022-10-31T12:44:00.555Z,62.10
2022-10-31T12:48:32.748Z,63.30
2022-10-31T12:52:58.992Z,64.20
2022-10-31T12:57:23.654Z,64.50
2022-10-31T13:01:45.067Z,64.80
2022-10-31T13:06:04.591Z,65.00
2022-10-31T13:10:22.897Z,65.10
2022-10-31T13:14:40.952Z,65.20
2022-10-31T13:19:01.005Z,65.30
2022-10-31T13:23:49.187Z,65.40
2022-10-31T13:28:01.782Z,65.80
2022-10-31T13:32:15.554Z,65.90
2022-10-31T13:36:36.761Z,66.20
2022-10-31T13:40:56.825Z,66.60
2022-10-31T13:45:15.669Z,67.10
2022-10-31T13:49:40.654Z,67.50
2022-10-31T13:54:02.980Z,67.90
2022-10-31T13:58:26.822Z,68.10
2022-10-31T14:02:49.098Z,68.30
2022-10-31T14:07:09.934Z,68.50
2022-10-31T14:11:32.986Z,68.70
2022-10-31T14:15:56.460Z,69.10
2022-10-31T14:20:40.197Z,69.50
2022-10-31T14:24:55.098Z,69.90
2022-10-31T14:29:28.954Z,70.40
2022-10-31T14:33:44.932Z,71.00
2022-10-31T14:38:35.431Z,71.50
2022-10-31T14:43:12.881Z,72.10
2022-10-31T14:47:38.880Z,72.60
2022-10-31T14:51:54.566Z,73.10
2022-10-31T14:56:13.163Z,73.40
2022-10-31T15:00:27.236Z,73.90
2022-10-31T15:04:44.327Z,74.40
2022-10-31T15:08:58.015Z,75.10
2022-10-31T15:13:12.811Z,75.60
2022-10-31T15:17:28.135Z,76.30
2022-10-31T15:21:47.018Z,77.50
2022-10-31T15:26:01.837Z,77.00
2022-10-31T15:30:21.397Z,77.60
2022-10-31T15:34:40.138Z,78.20
2022-10-31T15:38:58.270Z,78.60
2022-10-31T15:43:18.634Z,79.10
2022-10-31T15:47:34.044Z,79.50
2022-10-31T15:51:53.265Z,79.70
2022-10-31T15:56:13.613Z,80.10
2022-10-31T16:00:29.696Z,80.60
2022-10-31T16:04:51.847Z,81.00
2022-10-31T16:09:20.870Z,81.60
2022-10-31T16:13:38.109Z,82.20
2022-10-31T16:17:57.968Z,83.30
2022-10-31T16:22:21.503Z,84.10
2022-10-31T16:26:35.799Z,84.80
2022-10-31T16:30:53.166Z,85.50
2022-10-31T16:35:25.368Z,86.80
2022-10-31T16:39:39.118Z,87.90
2022-10-31T16:43:53.274Z,88.60
2022-10-31T16:48:12.573Z,89.00
2022-10-31T16:52:26.247Z,89.40
2022-10-31T16:56:40.680Z,89.60
2022-10-31T17:00:55.488Z,89.80
2022-10-31T17:05:15.450Z,89.80
2022-10-31T17:09:29.304Z,90.10
2022-10-31T17:13:43.136Z,90.20
2022-10-31T17:18:00.158Z,90.70
2022-10-31T17:22:16.561Z,90.60
2022-10-31T17:26:35.875Z,90.70
2022-10-31T17:31:07.016Z,90.80
2022-10-31T17:36:00.114Z,90.90
2022-10-31T17:40:22.295Z,91.10
2022-10-31T17:44:55.907Z,91.20
2022-10-31T17:49:12.606Z,91.40
2022-10-31T17:53:29.398Z,91.50
2022-10-31T17:57:46.317Z,91.70
2022-10-31T18:02:08.976Z,92.00
2022-10-31T18:06:27.311Z,92.00
2022-10-31T18:10:41.755Z,92.10
2022-10-31T18:14:56.868Z,92.20
2022-10-31T18:19:14.321Z,92.30
2022-10-31T18:23:28.071Z,92.50
2022-10-31T18:27:51.641Z,92.60
2022-10-31T18:32:09.447Z,92.80
2022-10-31T18:36:26.147Z,93.00
2022-10-31T18:40:39.802Z,93.10
2022-10-31T18:44:53.604Z,93.20
2022-10-31T18:49:08.665Z,93.40
2022-10-31T18:53:22.553Z,93.50
2022-10-31T18:57:36.627Z,93.60
2022-10-31T19:01:50.516Z,93.70
2022-10-31T19:06:06.955Z,93.90
2022-10-31T19:10:35.565Z,94.10
2022-10-31T19:14:59.235Z,94.20
2022-10-31T19:19:34.291Z,94.30
2022-10-31T19:23:59.588Z,94.40
2022-10-31T19:28:25.677Z,94.20
2022-10-31T19:32:49.616Z,94.50
2022-10-31T19:37:16.804Z,94.60
2022-10-31T19:41:42.230Z,94.60
2022-10-31T19:46:03.725Z,94.70
2022-10-31T19:50:44.183Z,94.90
2022-10-31T19:54:57.808Z,95.20
2022-10-31T19:59:12.956Z,94.80
2022-10-31T20:03:53.061Z,94.90
2022-10-31T20:08:07.508Z,94.90
2022-10-31T20:12:21.294Z,94.80
2022-10-31T20:16:36.710Z,94.70
2022-10-31T20:21:12.545Z,94.60
2022-10-31T20:25:32.305Z,94.50
2022-10-31T20:29:56.360Z,94.40
2022-10-31T20:34:16.952Z,94.70
2022-10-31T20:38:41.764Z,94.50
2022-10-31T20:42:58.671Z,94.40
2022-10-31T20:47:15.942Z,94.40
2022-10-31T20:51:31.804Z,94.40
2022-10-31T20:56:04.256Z,94.50
2022-10-31T21:00:24.647Z,94.80
2022-10-31T21:04:41.402Z,95.00
2022-10-31T21:08:57.854Z,95.10
2022-10-31T21:13:13.902Z,95.20
2022-10-31T21:17:31.664Z,95.20
2022-10-31T21:21:45.742Z,95.10
2022-10-31T21:26:06.291Z,95.00
2022-10-31T21:30:20.225Z,94.90
2022-10-31T21:34:38.107Z,94.90
2022-10-31T21:38:52.362Z,95.30
2022-10-31T21:43:07.713Z,95.00
2022-10-31T21:47:21.489Z,95.00
2022-10-31T21:51:38.246Z,95.00
2022-10-31T21:55:52.487Z,95.00
2022-10-31T22:00:10.153Z,95.00
2022-10-31T22:04:27.706Z,95.00
2022-10-31T22:08:45.084Z,94.90
2022-10-31T22:13:01.901Z,94.90
2022-10-31T22:17:30.417Z,94.80
2022-10-31T22:21:49.784Z,94.80
2022-10-31T22:26:07.498Z,94.70
2022-10-31T22:30:21.283Z,94.70
2022-10-31T22:34:36.311Z,94.70
2022-10-31T22:38:50.694Z,94.70
2022-10-31T22:43:04.684Z,94.60
2022-10-31T22:47:18.419Z,94.70
2022-10-31T22:51:35.033Z,94.70
2022-10-31T22:55:51.018Z,94.60
2022-10-31T23:00:05.933Z,94.60
2022-10-31T23:04:19.641Z,94.50
2022-10-31T23:08:37.049Z,94.50
2022-10-31T23:13:08.287Z,94.50
2022-10-31T23:17:22.131Z,94.50
2022-10-31T23:21:55.939Z,94.50
2022-10-31T23:26:28.804Z,94.50
2022-10-31T23:30:42.546Z,94.40
2022-10-31T23:34:57.649Z,94.30
2022-10-31T23:39:11.353Z,94.20
2022-10-31T23:43:26.367Z,94.10
2022-10-31T23:47:43.295Z,94.10
2022-10-31T23:51:57.917Z,94.00
2022-10-31T23:56:11.607Z,94.10
